Airfield :
LOGIN :

Register | Disclaimer

   EN    FR    IT 

 










Legend :    VFR   Marginal VFR   IFR   Intensive IFR   Very Intensive IFR
Visi :
Ceiling :
>= 8 km
>= 3000ft
5 to 8 km
1000 to 3000 ft
1500m to 5 km
500 to 1000 ft
800 to 1500m
200 to 500 ft
< 800m
< 200 ft
Symbols :   Thunderstorms  Fog  Heavy snow  Heavy precipitations  Wind > 20 kt
SIGMETs :     Misc.  Thunderstorms  Icing  Turbulence  Mountain Waves  Volcanic Ashes






- Airport Elevation : 1708 ft
- IATA code : SJJ


LQSA - Sarajevo

CURRENT METAR :
  • 280900Z VRB01KT 3000 BR FEW008 08/08 Q1017 BECMG 6000 NSW

EXPIRED METARs :
  • 280830Z 00000KT 0800 R11/0550N FG FEW002 SCT008 07/07 Q1017 BECMG 1800 BR
  • 280800Z VRB01KT 0600 R11/0400N FG SCT001 BKN006 06/06 Q1017 BECMG 0800
  • 280730Z VRB02KT 0600 R11/0300N FG SCT001 BKN006 06/06 Q1016
  • 280700Z VRB02KT 0600 R11/0550N FG SCT001 BKN006 06/06 Q1017

TAF COR TAF LQSA
Valid from the 28 at 08:00 until the 29 at 06:00 UTC


280825Z 2808/2906 VRB02KT 5000 BR NSC TX18/2813Z TN03/2905Z
PROB40 2808/2810 0600 FG BKN002
BECMG 2810/2812 9999 NSW
TEMPO 2900/2906 3000 BR BKN004
PROB40 2903/2906 0300 FG BKN001



MET'MAP, your aeronautical weather chart ! - Copyright ORBIFLY December 2007 - Disclaimer

ORBIFLY MET'MAP TEAM :

Programming & Development : Alexandra Zaïnal
Concept & original design : Baudouin d'Aumeries
Assistance for programming : Marc-Olivier Méhu
Technical & hardware support : Manuel Goepfert

Contact : metmap@orbifly.com




SOURCES & CREDITS :

   NOAA